createdAt,value
2023-01-23T00:00:12.072Z,18.80
2023-01-23T00:02:39.862Z,16.17
2023-01-23T00:05:08.598Z,18.27
2023-01-23T00:07:36.489Z,17.45
2023-01-23T00:10:04.813Z,16.85
2023-01-23T00:12:32.569Z,18.50
2023-01-23T00:15:00.349Z,16.63
2023-01-23T00:17:29.646Z,16.17
2023-01-23T00:19:58.313Z,15.93
2023-01-23T00:22:26.168Z,17.40
2023-01-23T00:24:54.022Z,14.35
2023-01-23T00:27:21.829Z,13.93
2023-01-23T00:29:49.680Z,14.63
2023-01-23T00:32:17.685Z,14.20
2023-01-23T00:34:47.310Z,14.52
2023-01-23T00:37:16.953Z,16.17
2023-01-23T00:39:46.192Z,17.50
2023-01-23T00:42:14.078Z,15.85
2023-01-23T00:44:41.856Z,17.33
2023-01-23T00:47:09.751Z,15.73
2023-01-23T00:49:37.525Z,16.52
2023-01-23T00:52:07.535Z,17.63
2023-01-23T00:54:35.407Z,15.27
2023-01-23T00:57:03.168Z,16.65
2023-01-23T00:59:31.209Z,17.08
2023-01-23T01:01:59.110Z,18.67
2023-01-23T01:04:26.947Z,15.82
2023-01-23T01:06:55.262Z,17.75
2023-01-23T01:09:25.547Z,17.13
2023-01-23T01:11:53.411Z,18.40
2023-01-23T01:14:21.372Z,19.33
2023-01-23T01:16:49.354Z,19.30
2023-01-23T01:19:18.279Z,18.55
2023-01-23T01:21:46.489Z,16.60
2023-01-23T01:24:14.295Z,17.42
2023-01-23T01:26:43.510Z,18.88
2023-01-23T01:29:11.269Z,17.88
2023-01-23T01:31:39.084Z,18.30
2023-01-23T01:34:06.885Z,16.25
2023-01-23T01:36:34.735Z,17.33
2023-01-23T01:39:02.541Z,18.60
2023-01-23T01:41:30.918Z,15.73
2023-01-23T01:44:00.197Z,16.92
2023-01-23T01:46:29.828Z,19.27
2023-01-23T01:49:09.151Z,18.13
2023-01-23T01:51:42.233Z,15.88
2023-01-23T01:54:17.764Z,16.40
2023-01-23T01:56:50.073Z,16.23
2023-01-23T01:59:21.076Z,16.77
2023-01-23T02:01:54.753Z,16.17
2023-01-23T02:04:22.615Z,16.73
2023-01-23T02:06:51.927Z,17.80
2023-01-23T02:09:25.425Z,15.95
2023-01-23T02:11:54.589Z,16.30
2023-01-23T02:14:25.760Z,15.45
2023-01-23T02:16:56.130Z,14.30
2023-01-23T02:19:38.509Z,17.02
2023-01-23T02:22:15.997Z,15.53
2023-01-23T02:24:53.559Z,16.70
2023-01-23T02:27:24.342Z,14.05
2023-01-23T02:29:56.182Z,16.27
2023-01-23T02:32:26.962Z,17.83
2023-01-23T02:34:58.787Z,16.73
2023-01-23T02:37:31.853Z,15.07
2023-01-23T02:42:29.602Z,17.30
2023-01-23T02:44:58.086Z,16.17
2023-01-23T02:47:26.088Z,18.92
2023-01-23T02:49:57.449Z,17.58
2023-01-23T02:52:25.566Z,19.02
2023-01-23T02:54:53.341Z,16.90
2023-01-23T02:57:21.161Z,18.45
2023-01-23T03:00:08.201Z,18.48
2023-01-23T03:02:38.183Z,17.58
2023-01-23T03:05:06.823Z,16.70
2023-01-23T03:07:34.779Z,16.25
2023-01-23T03:10:04.655Z,17.58
2023-01-23T03:12:32.591Z,14.90
2023-01-23T03:15:02.659Z,16.38
2023-01-23T03:17:30.615Z,18.02
2023-01-23T03:19:58.909Z,18.27
2023-01-23T03:22:27.500Z,19.13
2023-01-23T03:24:57.634Z,19.38
2023-01-23T03:27:25.741Z,18.42
2023-01-23T03:30:13.511Z,19.70
2023-01-23T03:32:44.118Z,19.92
2023-01-23T03:35:16.427Z,18.08
2023-01-23T03:37:44.421Z,18.70
2023-01-23T03:40:49.718Z,18.13
2023-01-23T03:43:19.264Z,16.75
2023-01-23T03:45:49.996Z,16.50
2023-01-23T03:48:20.234Z,16.27
2023-01-23T03:50:48.104Z,18.05
2023-01-23T03:53:18.613Z,17.33
2023-01-23T03:55:46.807Z,18.08
2023-01-23T03:58:14.789Z,16.67
2023-01-23T04:00:44.957Z,16.88
2023-01-23T04:03:12.910Z,15.05
2023-01-23T04:05:42.107Z,14.68
2023-01-23T04:08:10.054Z,15.32
2023-01-23T04:10:38.370Z,15.05
2023-01-23T04:13:13.043Z,16.30
2023-01-23T04:15:41.549Z,16.65
2023-01-23T04:18:09.571Z,15.02
2023-01-23T04:20:37.539Z,16.02
2023-01-23T04:23:06.994Z,15.55
2023-01-23T04:25:34.834Z,16.13
2023-01-23T04:28:05.002Z,14.82
2023-01-23T04:30:33.554Z,13.52
2023-01-23T04:33:09.105Z,16.05
2023-01-23T04:35:37.745Z,15.13
2023-01-23T04:38:07.146Z,16.33
2023-01-23T04:40:37.015Z,16.88
2023-01-23T04:43:05.045Z,17.70
2023-01-23T04:45:40.576Z,14.63
2023-01-23T04:48:28.703Z,14.73
2023-01-23T04:50:56.545Z,16.48
2023-01-23T04:53:25.704Z,15.48
2023-01-23T04:56:00.576Z,14.77
2023-01-23T04:58:28.555Z,14.85
2023-01-23T05:01:03.636Z,15.43
2023-01-23T05:03:34.861Z,15.13
2023-01-23T05:06:02.869Z,13.77
2023-01-23T05:08:32.102Z,13.25
2023-01-23T05:11:15.978Z,13.50
2023-01-23T05:13:44.883Z,13.75
2023-01-23T05:16:14.076Z,11.75
2023-01-23T05:19:00.506Z,14.70
2023-01-23T05:21:29.562Z,14.52
2023-01-23T05:23:58.779Z,13.55
2023-01-23T05:26:26.631Z,14.85
2023-01-23T05:28:56.100Z,17.25
2023-01-23T05:31:24.007Z,14.45
2023-01-23T05:34:11.873Z,12.73
2023-01-23T05:36:41.155Z,12.05
2023-01-23T05:39:10.357Z,12.85
2023-01-23T05:41:38.179Z,11.88
2023-01-23T05:44:31.516Z,14.48
2023-01-23T05:47:20.175Z,13.48
2023-01-23T05:49:49.266Z,13.02
2023-01-23T05:52:17.083Z,13.07
2023-01-23T05:54:46.331Z,13.35
2023-01-23T05:57:14.577Z,13.55
2023-01-23T05:59:45.521Z,14.00
2023-01-23T06:02:31.976Z,14.18
2023-01-23T06:05:28.643Z,15.18
2023-01-23T06:08:03.623Z,16.38
2023-01-23T06:10:32.892Z,14.73
2023-01-23T06:13:00.673Z,14.27
2023-01-23T06:15:28.622Z,13.35
2023-01-23T06:17:57.880Z,13.05
2023-01-23T06:20:26.926Z,11.75
2023-01-23T06:22:54.828Z,11.82
2023-01-23T06:25:22.895Z,11.70
2023-01-23T06:27:55.179Z,14.50
2023-01-23T06:30:24.752Z,11.90
2023-01-23T06:32:52.748Z,13.07
2023-01-23T06:35:27.694Z,14.13
2023-01-23T06:37:56.348Z,12.00
2023-01-23T06:40:24.987Z,13.77
2023-01-23T06:43:07.171Z,12.75
2023-01-23T06:45:35.100Z,13.38
2023-01-23T06:48:02.933Z,12.88
2023-01-23T06:50:30.946Z,12.77
2023-01-23T06:52:58.687Z,13.48
2023-01-23T06:55:26.765Z,13.73
2023-01-23T06:57:54.823Z,12.02
2023-01-23T07:00:24.395Z,13.98
2023-01-23T07:02:59.284Z,13.05
2023-01-23T07:05:27.436Z,11.85
2023-01-23T07:07:55.735Z,12.77
2023-01-23T07:10:23.896Z,12.07
2023-01-23T07:12:52.307Z,13.32
2023-01-23T07:15:20.256Z,15.00
2023-01-23T07:17:50.681Z,12.90
2023-01-23T07:20:19.001Z,13.75
2023-01-23T07:22:51.348Z,14.20
2023-01-23T07:25:19.196Z,13.55
2023-01-23T07:27:46.980Z,13.52
2023-01-23T07:30:15.253Z,14.52
2023-01-23T07:32:43.182Z,13.95
2023-01-23T07:35:12.379Z,15.35
2023-01-23T07:37:40.233Z,14.38
2023-01-23T07:40:08.996Z,13.05
2023-01-23T07:42:36.738Z,14.80
2023-01-23T07:45:04.918Z,14.68
2023-01-23T07:47:32.864Z,13.10
2023-01-23T07:50:00.793Z,14.23
2023-01-23T07:52:30.082Z,16.05
2023-01-23T07:54:57.916Z,15.20
2023-01-23T07:57:25.774Z,17.38
2023-01-23T07:59:53.710Z,16.73
2023-01-23T08:02:21.522Z,17.80
2023-01-23T08:04:49.458Z,14.65
2023-01-23T08:07:17.417Z,14.70
2023-01-23T08:09:46.725Z,14.00
2023-01-23T08:12:14.553Z,14.18
2023-01-23T08:14:42.391Z,17.15
2023-01-23T08:17:10.249Z,17.63
2023-01-23T08:19:38.472Z,15.82
2023-01-23T08:22:06.298Z,17.40
2023-01-23T08:24:34.186Z,15.65
2023-01-23T08:27:03.439Z,13.18
2023-01-23T08:29:32.637Z,15.43
2023-01-23T08:32:01.038Z,18.88
2023-01-23T08:34:28.932Z,12.77
2023-01-23T08:36:56.710Z,16.35
2023-01-23T08:39:25.312Z,16.15
2023-01-23T08:41:53.177Z,17.40
2023-01-23T08:44:22.370Z,19.35
2023-01-23T08:46:50.198Z,16.63
2023-01-23T08:49:19.529Z,17.48
2023-01-23T08:51:47.475Z,17.75
2023-01-23T08:54:15.590Z,18.38
2023-01-23T08:56:43.380Z,17.15
2023-01-23T08:59:11.307Z,18.55
2023-01-23T09:01:40.455Z,19.17
2023-01-23T09:04:08.454Z,17.40
2023-01-23T09:06:36.354Z,19.02
2023-01-23T09:09:04.400Z,18.60
2023-01-23T09:11:32.452Z,19.52
2023-01-23T09:14:00.294Z,19.90
2023-01-23T09:16:28.110Z,17.35
2023-01-23T09:18:57.503Z,19.67
2023-01-23T09:21:25.306Z,18.42
2023-01-23T09:23:53.170Z,21.10
2023-01-23T09:26:20.920Z,17.52
2023-01-23T09:28:48.735Z,18.45
2023-01-23T09:31:16.559Z,18.25
2023-01-23T09:33:44.503Z,18.48
2023-01-23T09:36:13.701Z,18.38
2023-01-23T09:38:41.504Z,15.90
2023-01-23T09:41:12.410Z,17.38
2023-01-23T09:43:46.310Z,18.60
2023-01-23T09:46:20.257Z,17.33
2023-01-23T09:48:52.119Z,20.60
2023-01-23T09:51:28.814Z,20.02
2023-01-23T09:54:01.379Z,18.67
2023-01-23T09:56:32.529Z,19.20
2023-01-23T09:59:08.531Z,16.88
2023-01-23T10:01:38.009Z,17.90
2023-01-23T10:04:06.801Z,18.48
2023-01-23T10:06:56.279Z,18.50
2023-01-23T10:09:38.227Z,19.88
2023-01-23T10:12:14.584Z,18.33
2023-01-23T10:15:00.209Z,17.67
2023-01-23T10:17:34.485Z,16.92
2023-01-23T10:20:25.142Z,19.38
2023-01-23T10:23:07.719Z,16.23
2023-01-23T10:25:40.942Z,18.27
2023-01-23T10:28:26.982Z,21.27
2023-01-23T10:30:59.908Z,19.23
2023-01-23T10:36:04.573Z,16.13
2023-01-23T10:38:38.614Z,16.50
2023-01-23T10:41:21.176Z,15.40
2023-01-23T10:43:52.898Z,15.20
2023-01-23T10:46:22.565Z,17.17
2023-01-23T10:48:51.979Z,16.23
2023-01-23T10:51:32.499Z,19.17
2023-01-23T10:54:22.660Z,17.95
2023-01-23T10:57:00.501Z,14.15
2023-01-23T10:59:32.642Z,14.25
2023-01-23T11:02:19.918Z,15.33
2023-01-23T11:04:51.627Z,15.40
2023-01-23T11:07:22.933Z,14.27
2023-01-23T11:09:55.618Z,14.00
2023-01-23T11:12:25.760Z,14.32
2023-01-23T11:15:12.147Z,13.95
2023-01-23T11:17:40.510Z,16.00
2023-01-23T11:20:13.360Z,16.98
2023-01-23T11:22:42.190Z,14.57
2023-01-23T11:25:31.125Z,15.63
2023-01-23T11:28:01.465Z,16.42
2023-01-23T11:30:45.548Z,14.63
2023-01-23T11:33:18.545Z,15.55
2023-01-23T11:35:55.783Z,14.43
2023-01-23T11:38:31.079Z,14.75
2023-01-23T11:41:00.588Z,17.42
2023-01-23T11:43:28.451Z,15.43
2023-01-23T11:46:13.563Z,15.93
2023-01-23T11:48:55.166Z,16.10
2023-01-23T11:51:33.719Z,17.02
2023-01-23T11:54:13.488Z,14.80
2023-01-23T11:56:55.810Z,15.77
2023-01-23T11:59:46.175Z,17.00
2023-01-23T12:02:40.765Z,16.50
2023-01-23T12:05:38.392Z,18.17
2023-01-23T12:08:19.136Z,17.25
2023-01-23T12:10:55.689Z,17.40
2023-01-23T12:13:41.557Z,15.20
2023-01-23T12:16:21.715Z,12.80
2023-01-23T12:19:07.582Z,14.48
2023-01-23T12:21:45.384Z,14.25
2023-01-23T12:24:22.902Z,12.52
2023-01-23T12:27:01.688Z,15.70
2023-01-23T12:29:57.066Z,14.38
2023-01-23T12:32:45.024Z,14.80
2023-01-23T12:35:28.055Z,13.65
2023-01-23T12:38:11.629Z,12.85
2023-01-23T12:40:44.662Z,12.48
2023-01-23T12:45:50.384Z,11.68
2023-01-23T12:48:28.095Z,14.07
2023-01-23T12:51:02.089Z,12.30
2023-01-23T12:53:36.083Z,12.45
2023-01-23T12:56:10.792Z,11.30
2023-01-23T12:58:42.720Z,13.27
2023-01-23T13:01:22.844Z,11.63
2023-01-23T13:04:05.517Z,12.27
2023-01-23T13:06:51.453Z,11.02
2023-01-23T13:09:30.297Z,12.88
2023-01-23T13:12:08.740Z,12.85
2023-01-23T13:17:47.945Z,11.05
2023-01-23T13:20:43.487Z,11.20
2023-01-23T13:23:29.698Z,10.90
2023-01-23T13:26:31.245Z,10.65
2023-01-23T13:29:02.141Z,10.25
2023-01-23T13:31:45.246Z,9.68
2023-01-23T13:34:42.124Z,11.43
2023-01-23T13:37:51.482Z,11.90
2023-01-23T13:40:24.902Z,10.00
2023-01-23T13:42:52.949Z,11.55
2023-01-23T13:45:31.909Z,11.10
2023-01-23T14:20:19.299Z,13.00
2023-01-23T14:22:47.409Z,11.52
2023-01-23T14:25:19.225Z,12.68
2023-01-23T14:27:54.149Z,12.98
2023-01-23T14:30:27.072Z,11.35
2023-01-23T14:32:55.779Z,10.80
2023-01-23T14:35:26.400Z,11.88
2023-01-23T14:37:58.405Z,12.63
2023-01-23T14:40:35.202Z,12.80
2023-01-23T14:43:08.699Z,13.13
2023-01-23T14:45:38.530Z,11.88
2023-01-23T14:48:08.192Z,12.45
2023-01-23T14:50:36.585Z,13.20
2023-01-23T14:53:06.583Z,12.38
2023-01-23T14:55:38.623Z,11.75
2023-01-23T14:58:07.543Z,11.77
2023-01-23T15:00:37.192Z,12.15
2023-01-23T15:03:05.614Z,10.68
2023-01-23T15:05:33.880Z,11.65
2023-01-23T15:08:04.395Z,11.65
2023-01-23T15:10:44.680Z,11.52
2023-01-23T15:13:21.441Z,11.70
2023-01-23T15:15:56.663Z,11.60
2023-01-23T15:18:27.525Z,11.65
2023-01-23T15:20:57.137Z,11.13
2023-01-23T15:23:32.149Z,13.35
2023-01-23T15:26:21.338Z,12.27
2023-01-23T15:28:51.333Z,9.75
2023-01-23T15:31:31.407Z,12.00
2023-01-23T15:34:19.616Z,10.60
2023-01-23T15:36:49.412Z,12.13
2023-01-23T15:39:22.000Z,11.18
2023-01-23T15:41:53.678Z,10.57
2023-01-23T15:44:23.727Z,11.90
2023-01-23T15:46:51.683Z,11.75
2023-01-23T15:49:25.957Z,11.88
2023-01-23T15:51:56.621Z,11.55
2023-01-23T15:54:29.504Z,11.60
2023-01-23T15:57:07.083Z,11.00
2023-01-23T15:59:37.238Z,12.15
2023-01-23T16:02:05.505Z,11.38
2023-01-23T16:04:33.604Z,12.15
2023-01-23T16:07:05.928Z,12.48
2023-01-23T16:09:36.907Z,11.75
2023-01-23T16:12:06.821Z,11.32
2023-01-23T16:14:34.770Z,11.55
2023-01-23T16:17:15.936Z,11.00
2023-01-23T16:19:45.003Z,11.45
2023-01-23T16:22:18.941Z,11.68
2023-01-23T16:24:47.182Z,11.00
2023-01-23T16:27:22.960Z,10.82
2023-01-23T16:29:50.839Z,11.05
2023-01-23T16:32:18.755Z,9.18
2023-01-23T16:34:46.735Z,10.18
2023-01-23T16:37:17.225Z,11.75
2023-01-23T16:39:46.933Z,11.40
2023-01-23T16:42:25.098Z,12.18
2023-01-23T16:44:53.196Z,12.48
2023-01-23T16:47:20.903Z,11.07
2023-01-23T16:49:53.616Z,12.55
2023-01-23T16:52:26.035Z,13.10
2023-01-23T16:54:55.576Z,11.65
2023-01-23T16:57:25.853Z,12.98
2023-01-23T16:59:56.515Z,10.73
2023-01-23T17:02:28.796Z,10.68
2023-01-23T17:04:57.882Z,11.55
2023-01-23T17:07:25.739Z,11.13
2023-01-23T17:09:53.651Z,12.68
2023-01-23T17:12:27.606Z,11.38
2023-01-23T17:14:57.500Z,11.13
2023-01-23T17:17:30.479Z,13.18
2023-01-23T17:20:01.028Z,12.50
2023-01-23T17:22:31.449Z,13.75
2023-01-23T17:24:59.702Z,12.70
2023-01-23T17:27:27.467Z,12.65
2023-01-23T17:29:56.738Z,12.77
2023-01-23T17:32:30.415Z,13.00
2023-01-23T17:35:01.802Z,13.50
2023-01-23T17:37:31.123Z,12.48
2023-01-23T17:39:58.912Z,12.85
2023-01-23T17:42:26.824Z,11.23
2023-01-23T17:44:55.950Z,9.80
2023-01-23T17:47:24.072Z,13.57
2023-01-23T17:49:54.561Z,11.73
2023-01-23T17:52:24.782Z,11.85
2023-01-23T17:54:54.339Z,11.80
2023-01-23T17:57:22.457Z,11.07
2023-01-23T17:59:50.246Z,10.77
2023-01-23T18:02:28.516Z,11.40
2023-01-23T18:04:57.143Z,12.30
2023-01-23T18:07:25.005Z,9.93
2023-01-23T18:09:55.468Z,10.75
2023-01-23T18:12:31.526Z,13.00
2023-01-23T18:15:07.419Z,13.35
2023-01-23T18:17:43.355Z,15.25
2023-01-23T18:20:18.686Z,13.30
2023-01-23T18:22:47.326Z,12.27
2023-01-23T18:25:16.756Z,11.63
2023-01-23T18:27:49.022Z,12.10
2023-01-23T18:30:46.827Z,11.87
2023-01-23T18:33:50.748Z,10.85
2023-01-23T18:36:31.519Z,12.32
2023-01-23T18:39:23.674Z,12.55
2023-01-23T18:42:03.948Z,15.25
2023-01-23T18:44:35.486Z,12.00
2023-01-23T18:47:05.660Z,12.95
2023-01-23T18:49:38.239Z,12.20
2023-01-23T18:52:12.094Z,12.00
2023-01-23T18:54:48.259Z,13.15
2023-01-23T18:57:28.145Z,10.45
2023-01-23T19:00:05.871Z,12.73
2023-01-23T19:02:39.217Z,10.68
2023-01-23T19:05:25.840Z,11.40
2023-01-23T19:07:54.209Z,12.57
2023-01-23T19:10:23.537Z,12.80
2023-01-23T19:13:07.698Z,12.20
2023-01-23T19:15:42.565Z,14.07
2023-01-23T19:18:40.815Z,14.18
2023-01-23T19:21:16.071Z,13.35
2023-01-23T19:23:51.687Z,13.27
2023-01-23T19:26:20.454Z,12.88
2023-01-23T19:28:49.035Z,13.48
2023-01-23T19:31:22.407Z,13.63
2023-01-23T19:33:50.444Z,13.18
2023-01-23T19:36:20.203Z,13.45
2023-01-23T19:38:52.505Z,11.97
2023-01-23T19:41:22.224Z,12.32
2023-01-23T19:43:54.089Z,12.45
2023-01-23T19:46:23.563Z,12.05
2023-01-23T19:48:55.562Z,14.18
2023-01-23T19:51:26.483Z,13.63
2023-01-23T19:53:55.439Z,13.35
2023-01-23T19:56:23.272Z,14.73
2023-01-23T19:58:51.437Z,13.20
2023-01-23T20:01:24.101Z,12.90
2023-01-23T20:03:52.236Z,12.15
2023-01-23T20:06:20.009Z,13.35
2023-01-23T20:08:52.353Z,13.98
2023-01-23T20:11:20.399Z,15.27
2023-01-23T20:13:48.341Z,14.40
2023-01-23T20:16:20.002Z,14.80
2023-01-23T20:18:49.027Z,15.45
2023-01-23T20:21:18.244Z,14.55
2023-01-23T20:23:46.533Z,13.70
2023-01-23T20:26:17.680Z,14.80
2023-01-23T20:28:47.781Z,14.02
2023-01-23T20:31:15.906Z,13.63
2023-01-23T20:33:44.253Z,13.65
2023-01-23T20:36:13.389Z,15.00
2023-01-23T20:38:42.893Z,16.40
2023-01-23T20:41:13.095Z,14.43
2023-01-23T20:43:42.935Z,13.20
2023-01-23T20:46:12.137Z,13.52
2023-01-23T20:48:41.668Z,12.80
2023-01-23T20:51:10.283Z,12.63
2023-01-23T20:53:39.936Z,11.82
2023-01-23T20:56:10.377Z,10.85
2023-01-23T20:58:57.615Z,12.32
2023-01-23T21:01:28.535Z,12.05
2023-01-23T21:03:56.562Z,12.38
2023-01-23T21:06:24.342Z,11.00
2023-01-23T21:08:52.190Z,11.98
2023-01-23T21:11:20.950Z,10.30
2023-01-23T21:13:51.970Z,11.75
2023-01-23T21:16:19.868Z,12.00
2023-01-23T21:18:50.077Z,11.73
2023-01-23T21:21:20.525Z,10.75
2023-01-23T21:23:50.169Z,12.27
2023-01-23T21:26:20.582Z,10.13
2023-01-23T21:28:53.227Z,11.52
2023-01-23T21:31:24.418Z,11.18
2023-01-23T21:33:56.794Z,11.77
2023-01-23T21:36:29.560Z,11.45
2023-01-23T21:39:00.703Z,9.68
2023-01-23T21:41:35.434Z,10.25
2023-01-23T21:44:03.477Z,10.88
2023-01-23T21:46:31.336Z,11.18
2023-01-23T21:49:00.565Z,10.77
2023-01-23T21:51:31.423Z,11.10
2023-01-23T21:54:00.296Z,10.13
2023-01-23T21:56:28.367Z,9.93
2023-01-23T21:58:56.424Z,12.40
2023-01-23T22:01:35.670Z,10.77
2023-01-23T22:04:06.993Z,11.52
2023-01-23T22:06:38.096Z,10.10
2023-01-23T22:09:06.815Z,10.52
2023-01-23T22:11:37.955Z,11.00
2023-01-23T22:14:06.027Z,12.10
2023-01-23T22:16:47.862Z,11.02
2023-01-23T22:19:22.037Z,10.68
2023-01-23T22:21:51.347Z,11.15
2023-01-23T22:24:19.312Z,11.23
2023-01-23T22:26:47.150Z,10.90
2023-01-23T22:29:15.297Z,11.25
2023-01-23T22:31:43.299Z,12.98
2023-01-23T22:34:11.434Z,12.85
2023-01-23T22:36:40.774Z,12.50
2023-01-23T22:39:08.550Z,11.23
2023-01-23T22:41:36.328Z,12.27
2023-01-23T22:44:04.220Z,13.38
2023-01-23T22:46:32.592Z,12.88
2023-01-23T22:49:00.389Z,12.80
2023-01-23T22:51:29.195Z,12.23
2023-01-23T22:53:59.830Z,11.60
2023-01-23T22:56:29.035Z,12.23
2023-01-23T22:58:57.694Z,11.02
2023-01-23T23:01:26.974Z,13.15
2023-01-23T23:03:55.385Z,12.00
2023-01-23T23:06:23.326Z,12.02
2023-01-23T23:08:51.094Z,13.82
2023-01-23T23:11:22.084Z,14.18
2023-01-23T23:13:50.510Z,12.48
2023-01-23T23:16:20.729Z,15.73
2023-01-23T23:18:51.344Z,12.38
2023-01-23T23:21:21.427Z,13.15
2023-01-23T23:23:49.324Z,12.18
2023-01-23T23:26:17.633Z,13.73
2023-01-23T23:28:46.793Z,11.85
2023-01-23T23:31:16.988Z,12.13
2023-01-23T23:33:44.907Z,14.90
2023-01-23T23:36:13.030Z,14.07
2023-01-23T23:38:40.927Z,12.52
2023-01-23T23:41:12.418Z,13.02
2023-01-23T23:43:40.210Z,13.48
2023-01-23T23:46:10.908Z,15.23
2023-01-23T23:48:39.700Z,15.05
2023-01-23T23:51:09.716Z,14.20
2023-01-23T23:53:37.696Z,14.27
2023-01-23T23:56:06.880Z,16.55
2023-01-23T23:58:36.367Z,16.23
